False Pass, AK

6:17 PM AKST on December 18, 2014 (GMT -0900)
Dutch Harbor | Change Station
CLOSE
Current Station
Airport
Location: Dutch Harbor,
Elevation: 13 ft
Nearby Weather Stations

Elev 13 ft 53.90 °N, 166.54 °W | Updated 1 hour ago

Overcast
Overcast
38 °F
Feels Like 33 °F
N
7
Wind Variable Wind from East

Today
High -- | Low -- °F
--% Chance of Precip.
Yesterday
High -- | Low -- °F
Precip. -- in
10:14 AM 5:26 PM
Waning Crescent, 10% visible
Pressure 29.03 in
Visibility 10.0 miles
Clouds Mostly Cloudy 3300 ft
Mostly Cloudy 4000 ft
Overcast 4800 ft
Windchill 33 °F
Dew Point 27 °F
Humidity 65%
Rainfall 0.00 in
Snow Depth Not available.
UV 0 out of 12
Pollen Not available.
Air Quality Not available.
Flu Activity Not available.
METAR PADU 190156Z 10006KT 10SM BKN033 BKN040 OVC048 03/M03 A2901 RMK AO2 SLP829 MH T00331028

More Conditions Fewer Conditions

Pressure 29.03 in
Visibility 10.0 miles
Clouds Mostly Cloudy 3300 ft
Mostly Cloudy 4000 ft
Overcast 4800 ft
Windchill 33 °F
Dew Point 27 °F
Humidity 65%
Rainfall 0.00 in
Snow Depth Not available.
UV 0 out of 12
Pollen Not available.
Air Quality Not available.
Flu Activity Not available.
METAR PADU 190156Z 10006KT 10SM BKN033 BKN040 OVC048 03/M03 A2901 RMK AO2 SLP829 MH T00331028

More Conditions Fewer Conditions

10-Day Weather Forecast

Almanac

Astronomy

Dec. 18, 2014 Rise Set
Actual Time
Civil Twilight
Nautical Twilight
Astronomical Twilight
Moon
Length of Visible Light
Length of Day
Tomorrow will be .
, % of the Moon is Illuminated

Today's Extremes

State Highs State Lows

Community

WunderPhotos

Upload Photos

1,778,994 photos uploaded!

WunderBlogs® & News

Nearby

Air Quality

  Air Quality AQ Index Pollutant
Not available.

Snow Depth

Station Depth Elevation

Earthquake Activity

City Distance Mag. Time & Date
Minimum magnitude displayed is 2.5.

Coastal Water Temperatures

Place Temperature

Nearby Weather Stations